createdAt,value
2023-08-05T00:03:37.427Z,29.43
2023-08-05T00:08:30.673Z,29.24
2023-08-05T00:13:24.041Z,29.11
2023-08-05T00:18:18.568Z,28.67
2023-08-05T00:23:11.793Z,29.06
2023-08-05T00:28:05.277Z,28.90
2023-08-05T00:32:58.459Z,29.04
2023-08-05T00:37:53.078Z,28.88
2023-08-05T00:42:46.266Z,28.86
2023-08-05T00:47:39.508Z,28.79
2023-08-05T00:52:32.845Z,28.63
2023-08-05T00:57:27.742Z,28.46
2023-08-05T01:02:20.861Z,28.07
2023-08-05T01:07:15.840Z,27.90
2023-08-05T01:12:10.102Z,27.71
2023-08-05T01:17:04.996Z,27.37
2023-08-05T01:22:06.165Z,27.28
2023-08-05T01:27:00.917Z,27.03
2023-08-05T01:31:55.142Z,26.91
2023-08-05T01:36:48.504Z,26.67
2023-08-05T01:41:41.844Z,26.52
2023-08-05T01:46:36.362Z,26.34
2023-08-05T01:51:29.850Z,26.07
2023-08-05T01:56:23.064Z,25.98
2023-08-05T02:01:16.322Z,25.90
2023-08-05T02:06:10.932Z,25.77
2023-08-05T02:11:05.169Z,25.64
2023-08-05T02:15:58.331Z,25.55
2023-08-05T02:20:51.488Z,25.44
2023-08-05T02:25:46.026Z,25.29
2023-08-05T02:30:39.797Z,25.15
2023-08-05T02:35:33.131Z,25.07
2023-08-05T02:40:27.657Z,24.72
2023-08-05T02:45:22.223Z,24.80
2023-08-05T02:50:15.606Z,24.82
2023-08-05T02:55:09.418Z,24.73
2023-08-05T03:00:04.505Z,24.61
2023-08-05T03:04:59.103Z,24.26
2023-08-05T03:09:52.427Z,24.42
2023-08-05T03:14:45.592Z,24.35
2023-08-05T03:19:38.915Z,24.33
2023-08-05T03:24:33.789Z,24.27
2023-08-05T03:29:27.174Z,24.08
2023-08-05T03:34:20.691Z,24.09
2023-08-05T03:39:14.468Z,24.09
2023-08-05T03:44:09.379Z,24.07
2023-08-05T03:49:03.686Z,24.03
2023-08-05T03:53:57.427Z,24.01
2023-08-05T03:58:52.696Z,24.06
2023-08-05T04:03:47.693Z,23.78
2023-08-05T04:08:41.831Z,24.03
2023-08-05T04:13:36.037Z,24.17
2023-08-05T04:18:29.417Z,24.31
2023-08-05T04:23:25.339Z,24.41
2023-08-05T04:28:19.446Z,24.50
2023-08-05T04:33:13.076Z,24.61
2023-08-05T04:38:06.286Z,24.63
2023-08-05T04:43:00.776Z,24.77
2023-08-05T04:47:53.955Z,24.77
2023-08-05T04:52:47.829Z,24.92
2023-08-05T04:57:40.937Z,25.19
2023-08-05T05:02:35.508Z,25.30
2023-08-05T05:07:28.606Z,25.39
2023-08-05T05:12:21.753Z,25.01
2023-08-05T05:17:17.132Z,25.62
2023-08-05T05:22:11.979Z,25.79
2023-08-05T05:27:05.622Z,25.80
2023-08-05T05:31:58.747Z,26.08
2023-08-05T05:36:52.192Z,26.13
2023-08-05T05:41:47.016Z,26.39
2023-08-05T05:46:40.214Z,26.58
2023-08-05T05:51:33.417Z,26.89
2023-08-05T05:56:26.540Z,27.11
2023-08-05T06:01:21.062Z,27.34
2023-08-05T06:06:14.384Z,27.62
2023-08-05T06:11:08.559Z,27.95
2023-08-05T06:16:02.075Z,28.24
2023-08-05T06:20:56.627Z,28.58
2023-08-05T06:25:49.894Z,28.91
2023-08-05T06:30:45.081Z,29.17
2023-08-05T06:35:38.388Z,29.47
2023-08-05T06:40:33.136Z,29.78
2023-08-05T06:45:26.397Z,29.96
2023-08-05T06:50:19.734Z,30.26
2023-08-05T06:55:13.353Z,30.54
2023-08-05T07:00:09.495Z,30.79
2023-08-05T07:05:02.696Z,31.05
2023-08-05T07:10:02.039Z,31.10
2023-08-05T07:14:55.178Z,31.33
2023-08-05T07:19:50.829Z,31.54
2023-08-05T07:24:44.027Z,31.64
2023-08-05T07:29:39.327Z,31.59
2023-08-05T07:34:33.901Z,31.75
2023-08-05T07:39:34.588Z,32.02
2023-08-05T07:44:27.763Z,32.28
2023-08-05T07:49:21.108Z,32.51
2023-08-05T07:54:15.161Z,32.71
2023-08-05T07:59:10.071Z,32.83
2023-08-05T08:04:04.500Z,32.99
2023-08-05T08:08:57.762Z,33.05
2023-08-05T08:13:50.883Z,33.37
2023-08-05T08:18:45.441Z,33.56
2023-08-05T08:23:38.626Z,33.75
2023-08-05T08:28:31.936Z,34.11
2023-08-05T08:33:26.301Z,34.88
2023-08-05T08:38:21.542Z,35.64
2023-08-05T08:43:20.071Z,36.45
2023-08-05T08:48:16.979Z,37.22
2023-08-05T08:53:10.913Z,38.03
2023-08-05T08:58:05.685Z,38.56
2023-08-05T09:02:59.991Z,38.90
2023-08-05T09:07:53.644Z,39.30
2023-08-05T09:12:47.127Z,39.70
2023-08-05T09:17:41.795Z,39.97
2023-08-05T09:22:34.966Z,40.29
2023-08-05T09:27:28.170Z,40.38
2023-08-05T09:32:32.630Z,40.47
2023-08-05T09:37:32.029Z,40.35
2023-08-05T09:42:26.100Z,40.17
2023-08-05T09:47:24.266Z,39.96
2023-08-05T09:52:19.199Z,39.64
2023-08-05T09:57:15.062Z,38.73
2023-08-05T10:02:12.861Z,38.93
2023-08-05T10:07:06.202Z,38.67
2023-08-05T10:11:59.797Z,38.63
2023-08-05T10:16:54.572Z,38.83
2023-08-05T10:21:47.836Z,39.25
2023-08-05T10:26:45.067Z,39.57
2023-08-05T10:31:38.764Z,40.01
2023-08-05T10:36:45.026Z,40.73
2023-08-05T10:41:38.255Z,41.22
2023-08-05T10:46:33.417Z,41.44
2023-08-05T10:51:27.762Z,41.45
2023-08-05T10:56:31.344Z,41.70
2023-08-05T11:01:24.608Z,42.14
2023-08-05T11:06:26.568Z,42.33
2023-08-05T11:11:19.875Z,42.65
2023-08-05T11:16:15.420Z,43.15
2023-08-05T11:21:10.027Z,43.25
2023-08-05T11:26:03.652Z,43.49
2023-08-05T11:30:57.259Z,43.98
2023-08-05T11:35:55.142Z,44.08
2023-08-05T11:40:50.638Z,44.13
2023-08-05T11:45:44.509Z,44.30
2023-08-05T11:50:38.561Z,44.63
2023-08-05T11:55:37.160Z,44.82
2023-08-05T12:00:30.816Z,44.59
2023-08-05T12:05:24.960Z,44.69
2023-08-05T12:10:19.846Z,44.90
2023-08-05T12:15:15.782Z,45.15
2023-08-05T12:20:12.585Z,45.25
2023-08-05T12:25:07.775Z,45.30
2023-08-05T12:30:02.174Z,45.40
2023-08-05T12:34:56.675Z,45.65
2023-08-05T12:39:49.853Z,45.76
2023-08-05T12:44:43.026Z,45.73
2023-08-05T12:49:37.390Z,44.98
2023-08-05T12:54:32.010Z,45.41
2023-08-05T12:59:25.412Z,45.43
2023-08-05T13:04:18.626Z,45.50
2023-08-05T13:09:11.813Z,45.14
2023-08-05T13:14:06.802Z,44.65
2023-08-05T13:18:59.952Z,44.74
2023-08-05T13:23:53.118Z,44.76
2023-08-05T13:28:46.257Z,44.67
2023-08-05T13:33:43.125Z,44.64
2023-08-05T13:38:36.196Z,44.77
2023-08-05T13:43:29.471Z,44.92
2023-08-05T13:48:23.133Z,44.87
2023-08-05T13:53:17.647Z,44.50
2023-08-05T13:58:10.856Z,44.56
2023-08-05T14:03:04.092Z,44.14
2023-08-05T14:07:57.384Z,43.88
2023-08-05T14:12:51.884Z,43.94
2023-08-05T14:17:45.092Z,43.79
2023-08-05T14:22:38.327Z,43.83
2023-08-05T14:27:31.482Z,43.60
2023-08-05T14:32:28.628Z,43.44
2023-08-05T14:37:21.844Z,43.31
2023-08-05T14:42:15.029Z,43.13
2023-08-05T14:47:08.509Z,42.44
2023-08-05T14:52:03.126Z,41.62
2023-08-05T14:56:56.377Z,40.59
2023-08-05T15:01:49.796Z,39.66
2023-08-05T15:06:43.193Z,39.13
2023-08-05T15:11:37.773Z,38.69
2023-08-05T15:16:30.888Z,38.28
2023-08-05T15:21:24.213Z,37.99
2023-08-05T15:26:17.909Z,37.86
2023-08-05T15:31:18.857Z,37.64
2023-08-05T15:36:16.216Z,37.47
2023-08-05T15:41:09.308Z,37.33
2023-08-05T15:46:02.578Z,37.12
2023-08-05T15:51:04.789Z,36.95
2023-08-05T15:56:01.683Z,36.81
2023-08-05T16:01:01.343Z,36.66
2023-08-05T16:06:03.288Z,36.52
2023-08-05T16:11:01.224Z,36.27
2023-08-05T16:15:54.259Z,36.14
2023-08-05T16:20:47.666Z,36.01
2023-08-05T16:25:42.270Z,35.84
2023-08-05T16:30:35.516Z,35.74
2023-08-05T16:35:28.878Z,35.41
2023-08-05T16:40:22.143Z,35.47
2023-08-05T16:45:19.459Z,35.39
2023-08-05T16:50:12.730Z,35.28
2023-08-05T16:55:06.558Z,35.17
2023-08-05T16:59:59.780Z,35.01
2023-08-05T17:04:55.849Z,34.88
2023-08-05T17:09:51.349Z,34.68
2023-08-05T17:14:44.799Z,34.52
2023-08-05T17:19:38.004Z,34.36
2023-08-05T17:24:32.514Z,34.14
2023-08-05T17:29:25.764Z,33.94
2023-08-05T17:34:18.969Z,33.85
2023-08-05T17:39:12.219Z,33.66
2023-08-05T17:44:06.975Z,33.51
2023-08-05T17:49:00.225Z,33.36
2023-08-05T17:53:53.476Z,33.23
2023-08-05T17:58:46.924Z,33.10
2023-08-05T18:03:41.588Z,32.89
2023-08-05T18:08:35.394Z,32.72
2023-08-05T18:13:28.683Z,32.56
2023-08-05T18:18:22.024Z,32.42
2023-08-05T18:23:16.990Z,32.29
2023-08-05T18:28:11.133Z,32.12
2023-08-05T18:33:04.742Z,31.95
2023-08-05T18:37:59.136Z,31.85
2023-08-05T18:42:53.759Z,31.60
2023-08-05T18:47:46.907Z,31.56
2023-08-05T18:52:40.081Z,31.46
2023-08-05T18:57:36.475Z,31.29
2023-08-05T19:02:31.168Z,31.23
2023-08-05T19:07:24.437Z,31.13
2023-08-05T19:12:17.642Z,31.05
2023-08-05T19:17:10.864Z,30.86
2023-08-05T19:22:06.039Z,30.76
2023-08-05T19:26:59.208Z,30.71
2023-08-05T19:31:52.718Z,30.62
2023-08-05T19:36:46.413Z,30.54
2023-08-05T19:41:41.067Z,30.45
2023-08-05T19:46:34.819Z,30.27
2023-08-05T19:51:28.116Z,30.23
2023-08-05T19:56:21.402Z,30.18
2023-08-05T20:01:15.956Z,29.99
2023-08-05T20:06:09.343Z,29.98
2023-08-05T20:11:02.490Z,29.90
2023-08-05T20:15:58.399Z,29.81
2023-08-05T20:20:53.194Z,29.63
2023-08-05T20:25:46.343Z,28.96
2023-08-05T20:30:39.735Z,28.73
2023-08-05T20:35:34.325Z,29.25
2023-08-05T20:40:29.244Z,29.26
2023-08-05T20:45:22.533Z,29.09
2023-08-05T20:50:16.050Z,29.06
2023-08-05T20:55:09.780Z,29.03
2023-08-05T21:00:06.069Z,28.97
2023-08-05T21:05:01.083Z,28.90
2023-08-05T21:09:54.267Z,28.85
2023-08-05T21:14:47.747Z,28.77
2023-08-05T21:19:42.359Z,28.69
2023-08-05T21:24:35.887Z,28.62
2023-08-05T21:29:29.099Z,28.29
2023-08-05T21:34:22.342Z,28.51
2023-08-05T21:39:16.912Z,28.48
2023-08-05T21:44:10.217Z,28.42
2023-08-05T21:49:03.316Z,28.34
2023-08-05T21:53:56.473Z,28.26
2023-08-05T21:58:50.994Z,27.45
2023-08-05T22:03:44.279Z,28.06
2023-08-05T22:08:37.693Z,27.65
2023-08-05T22:13:30.883Z,27.90
2023-08-05T22:18:25.471Z,27.85
2023-08-05T22:23:18.767Z,27.75
2023-08-05T22:28:12.059Z,27.69
2023-08-05T22:33:05.427Z,27.57
2023-08-05T22:38:00.155Z,27.53
2023-08-05T22:42:53.437Z,27.32
2023-08-05T22:47:46.723Z,27.34
2023-08-05T22:52:40.964Z,27.23
2023-08-05T22:57:35.578Z,27.17
2023-08-05T23:02:28.872Z,27.02
2023-08-05T23:07:22.108Z,26.96
2023-08-05T23:12:15.273Z,26.79
2023-08-05T23:17:09.760Z,26.73
2023-08-05T23:22:03.054Z,26.72
2023-08-05T23:26:56.262Z,26.55
2023-08-05T23:31:49.420Z,26.66
2023-08-05T23:36:44.124Z,26.65
2023-08-05T23:41:37.305Z,26.60
2023-08-05T23:46:30.543Z,26.63
2023-08-05T23:51:23.845Z,26.52
2023-08-05T23:56:18.510Z,26.44
